Halkirk, Canada
Current Conditions -  °F | °C
As of 9:16 PM on Thursday 27 Nov 2014 (Local Time) from CYQF Reporting Station
Light Snow Light Snow  
Wind Chill: -25°   Ceiling: 2000
Heat Index: -16°   Visibility: 3mi
Dew Point: -19°   Wind: 12mph
Humidity: 78%   Direction: 10°N
Pressure: 29.76"   Gusts: NA
Location:  52.28°N, 112.15°W
Report Text: CYQF 280416Z 01010KT 3SM -SN OVC020 M16/M19 A2976 RMK SC8 SLP143
Loading
Personal Weather Stations






























Interactive Weather Map New forecast layout! Learn more

10-Day Weather Forecast

Advertisements
Track Severe Weather on mobile